sensor_id;sensor_type;location;lat;lon;timestamp;pressure;altitude;pressure_sealevel;temperature;humidity
5691;BME280;2870;42.680;23.364;2022-07-29T00:00:07;95311.53;;;21.22;80.15
5691;BME280;2870;42.680;23.364;2022-07-29T00:02:34;95313.75;;;21.23;80.88
5691;BME280;2870;42.680;23.364;2022-07-29T00:05:02;95318.72;;;21.23;81.23
5691;BME280;2870;42.680;23.364;2022-07-29T00:07:28;95322.81;;;21.20;81.39
5691;BME280;2870;42.680;23.364;2022-07-29T00:09:57;95325.22;;;21.11;81.58
5691;BME280;2870;42.680;23.364;2022-07-29T00:12:24;95338.84;;;21.13;79.86
5691;BME280;2870;42.680;23.364;2022-07-29T00:14:51;95344.25;;;21.21;78.60
5691;BME280;2870;42.680;23.364;2022-07-29T00:17:18;95331.72;;;21.26;80.03
5691;BME280;2870;42.680;23.364;2022-07-29T00:19:45;95334.47;;;21.24;80.33
5691;BME280;2870;42.680;23.364;2022-07-29T00:22:12;95328.81;;;21.12;79.05
5691;BME280;2870;42.680;23.364;2022-07-29T00:24:39;95338.34;;;21.16;81.31
5691;BME280;2870;42.680;23.364;2022-07-29T00:27:07;95339.78;;;21.29;80.74
5691;BME280;2870;42.680;23.364;2022-07-29T00:29:34;95344.34;;;21.34;79.54
5691;BME280;2870;42.680;23.364;2022-07-29T00:32:01;95338.25;;;21.40;78.83
5691;BME280;2870;42.680;23.364;2022-07-29T00:34:27;95321.69;;;21.25;80.95
5691;BME280;2870;42.680;23.364;2022-07-29T00:37:12;95327.63;;;21.29;79.63
5691;BME280;2870;42.680;23.364;2022-07-29T00:39:38;95327.09;;;21.32;77.59
5691;BME280;2870;42.680;23.364;2022-07-29T00:42:07;95331.59;;;21.24;79.96
5691;BME280;2870;42.680;23.364;2022-07-29T00:44:36;95331.91;;;21.16;79.80
5691;BME280;2870;42.680;23.364;2022-07-29T00:47:03;95327.13;;;21.21;81.55
5691;BME280;2870;42.680;23.364;2022-07-29T00:49:30;95339.41;;;21.35;78.98
5691;BME280;2870;42.680;23.364;2022-07-29T00:51:57;95337.06;;;21.20;80.06
5691;BME280;2870;42.680;23.364;2022-07-29T00:54:24;95336.63;;;21.11;80.43
5691;BME280;2870;42.680;23.364;2022-07-29T00:56:52;95338.84;;;21.13;80.57
5691;BME280;2870;42.680;23.364;2022-07-29T00:59:21;95338.31;;;20.91;83.26
5691;BME280;2870;42.680;23.364;2022-07-29T01:01:47;95339.38;;;20.72;84.06
5691;BME280;2870;42.680;23.364;2022-07-29T01:04:14;95346.16;;;20.79;84.25
5691;BME280;2870;42.680;23.364;2022-07-29T01:06:41;95334.53;;;20.75;84.39
5691;BME280;2870;42.680;23.364;2022-07-29T01:09:09;95330.31;;;20.76;84.13
5691;BME280;2870;42.680;23.364;2022-07-29T01:11:37;95323.28;;;20.65;84.76
5691;BME280;2870;42.680;23.364;2022-07-29T01:14:05;95330.13;;;20.60;85.84
5691;BME280;2870;42.680;23.364;2022-07-29T01:16:42;95329.38;;;20.59;86.18
5691;BME280;2870;42.680;23.364;2022-07-29T01:19:30;95322.41;;;20.62;87.19
5691;BME280;2870;42.680;23.364;2022-07-29T01:22:07;95328.72;;;20.73;87.13
5691;BME280;2870;42.680;23.364;2022-07-29T01:24:59;95330.16;;;20.36;87.51
5691;BME280;2870;42.680;23.364;2022-07-29T01:27:38;95317.25;;;20.24;88.83
5691;BME280;2870;42.680;23.364;2022-07-29T01:30:09;95324.56;;;20.38;89.02
5691;BME280;2870;42.680;23.364;2022-07-29T01:32:37;95325.44;;;20.18;89.40
5691;BME280;2870;42.680;23.364;2022-07-29T01:35:10;95323.22;;;20.28;89.45
5691;BME280;2870;42.680;23.364;2022-07-29T01:37:45;95324.91;;;20.45;89.15
5691;BME280;2870;42.680;23.364;2022-07-29T01:40:27;95310.06;;;20.46;88.19
5691;BME280;2870;42.680;23.364;2022-07-29T01:42:57;95302.63;;;20.41;88.79
5691;BME280;2870;42.680;23.364;2022-07-29T01:45:38;95309.81;;;20.42;89.12
5691;BME280;2870;42.680;23.364;2022-07-29T01:48:12;95316.50;;;20.35;88.84
5691;BME280;2870;42.680;23.364;2022-07-29T01:50:46;95314.06;;;20.18;89.51
5691;BME280;2870;42.680;23.364;2022-07-29T01:53:19;95310.69;;;20.33;88.88
5691;BME280;2870;42.680;23.364;2022-07-29T01:55:48;95309.22;;;20.32;90.95
5691;BME280;2870;42.680;23.364;2022-07-29T01:58:17;95305.88;;;20.24;90.25
5691;BME280;2870;42.680;23.364;2022-07-29T02:00:48;95311.56;;;20.24;91.10
5691;BME280;2870;42.680;23.364;2022-07-29T02:03:17;95305.88;;;20.24;90.65
5691;BME280;2870;42.680;23.364;2022-07-29T02:05:47;95305.50;;;20.18;90.02
5691;BME280;2870;42.680;23.364;2022-07-29T02:08:15;95305.66;;;20.20;89.97
5691;BME280;2870;42.680;23.364;2022-07-29T02:10:44;95293.50;;;20.19;90.09
5691;BME280;2870;42.680;23.364;2022-07-29T02:13:12;95289.38;;;20.34;90.38
5691;BME280;2870;42.680;23.364;2022-07-29T02:15:42;95277.13;;;20.31;89.54
5691;BME280;2870;42.680;23.364;2022-07-29T02:18:14;95287.41;;;20.25;88.79
5691;BME280;2870;42.680;23.364;2022-07-29T02:20:44;95298.81;;;20.13;90.15
5691;BME280;2870;42.680;23.364;2022-07-29T02:23:12;95298.69;;;20.23;89.73
5691;BME280;2870;42.680;23.364;2022-07-29T02:25:41;95293.59;;;20.33;90.09
5691;BME280;2870;42.680;23.364;2022-07-29T02:28:09;95296.44;;;20.33;90.64
5691;BME280;2870;42.680;23.364;2022-07-29T02:30:40;95301.38;;;20.44;90.17
5691;BME280;2870;42.680;23.364;2022-07-29T02:33:08;95280.09;;;20.33;89.90
5691;BME280;2870;42.680;23.364;2022-07-29T02:35:38;95290.63;;;20.43;90.03
5691;BME280;2870;42.680;23.364;2022-07-29T02:38:07;95282.28;;;20.58;89.33
5691;BME280;2870;42.680;23.364;2022-07-29T02:40:53;95272.38;;;20.59;87.13
5691;BME280;2870;42.680;23.364;2022-07-29T02:43:22;95276.97;;;20.41;87.80
5691;BME280;2870;42.680;23.364;2022-07-29T02:45:51;95272.53;;;20.38;87.66
5691;BME280;2870;42.680;23.364;2022-07-29T02:48:23;95272.53;;;20.38;87.35
5691;BME280;2870;42.680;23.364;2022-07-29T02:51:04;95261.88;;;20.50;87.19
5691;BME280;2870;42.680;23.364;2022-07-29T02:53:33;95272.53;;;20.50;86.19
5691;BME280;2870;42.680;23.364;2022-07-29T02:56:06;95271.28;;;20.41;85.98
5691;BME280;2870;42.680;23.364;2022-07-29T02:58:38;95286.78;;;20.38;88.06
5691;BME280;2870;42.680;23.364;2022-07-29T03:01:11;95280.06;;;20.57;85.78
5691;BME280;2870;42.680;23.364;2022-07-29T03:03:42;95276.31;;;20.66;86.30
5691;BME280;2870;42.680;23.364;2022-07-29T03:06:14;95282.28;;;20.58;85.46
5691;BME280;2870;42.680;23.364;2022-07-29T03:08:42;95277.38;;;20.24;85.95
5691;BME280;2870;42.680;23.364;2022-07-29T03:11:10;95280.88;;;20.22;86.25
5691;BME280;2870;42.680;23.364;2022-07-29T03:13:38;95269.13;;;20.16;86.47
5691;BME280;2870;42.680;23.364;2022-07-29T03:16:05;95268.00;;;20.21;87.50
5691;BME280;2870;42.680;23.364;2022-07-29T03:18:34;95295.09;;;20.22;88.56
5691;BME280;2870;42.680;23.364;2022-07-29T03:21:02;95289.03;;;20.28;87.51
5691;BME280;2870;42.680;23.364;2022-07-29T03:23:31;95279.50;;;20.23;87.20
5691;BME280;2870;42.680;23.364;2022-07-29T03:25:58;95278.66;;;20.21;87.04
5691;BME280;2870;42.680;23.364;2022-07-29T03:28:25;95281.50;;;20.09;88.03
5691;BME280;2870;42.680;23.364;2022-07-29T03:30:52;95284.34;;;20.21;89.05
5691;BME280;2870;42.680;23.364;2022-07-29T03:33:19;95282.13;;;19.84;89.06
5691;BME280;2870;42.680;23.364;2022-07-29T03:35:46;95287.09;;;19.72;90.56
5691;BME280;2870;42.680;23.364;2022-07-29T03:38:13;95283.63;;;19.73;91.37
5691;BME280;2870;42.680;23.364;2022-07-29T03:40:46;95281.41;;;19.83;90.49
5691;BME280;2870;42.680;23.364;2022-07-29T03:43:16;95277.06;;;19.82;90.71
5691;BME280;2870;42.680;23.364;2022-07-29T03:45:47;95287.09;;;19.95;89.54
5691;BME280;2870;42.680;23.364;2022-07-29T03:48:16;95291.03;;;19.90;89.51
5691;BME280;2870;42.680;23.364;2022-07-29T03:50:44;95291.31;;;19.71;90.57
5691;BME280;2870;42.680;23.364;2022-07-29T03:53:11;95292.53;;;19.79;90.15
5691;BME280;2870;42.680;23.364;2022-07-29T03:55:42;95296.75;;;19.90;89.38
5691;BME280;2870;42.680;23.364;2022-07-29T03:58:10;95303.44;;;19.71;89.72
5691;BME280;2870;42.680;23.364;2022-07-29T04:00:37;95304.16;;;19.72;90.08
5691;BME280;2870;42.680;23.364;2022-07-29T04:03:04;95303.81;;;19.77;89.84
5691;BME280;2870;42.680;23.364;2022-07-29T04:05:31;95308.00;;;19.88;89.38
5691;BME280;2870;42.680;23.364;2022-07-29T04:07:58;95304.69;;;19.92;89.81
5691;BME280;2870;42.680;23.364;2022-07-29T04:10:25;95311.84;;;20.04;89.55
5691;BME280;2870;42.680;23.364;2022-07-29T04:12:53;95306.53;;;19.99;87.87
5691;BME280;2870;42.680;23.364;2022-07-29T04:15:20;95307.53;;;20.03;87.74
5691;BME280;2870;42.680;23.364;2022-07-29T04:17:47;95302.91;;;20.22;86.65
5691;BME280;2870;42.680;23.364;2022-07-29T04:20:13;95300.91;;;20.24;85.98
5691;BME280;2870;42.680;23.364;2022-07-29T04:22:40;95302.91;;;20.22;85.80
5691;BME280;2870;42.680;23.364;2022-07-29T04:25:08;95276.25;;;20.29;85.41
5691;BME280;2870;42.680;23.364;2022-07-29T04:27:35;95292.72;;;20.30;85.76
5691;BME280;2870;42.680;23.364;2022-07-29T04:30:23;95272.59;;;20.15;85.37
5691;BME280;2870;42.680;23.364;2022-07-29T04:32:50;95288.50;;;20.43;84.64
5691;BME280;2870;42.680;23.364;2022-07-29T04:35:17;95296.75;;;20.62;84.45
5691;BME280;2870;42.680;23.364;2022-07-29T04:37:44;95299.34;;;20.70;82.67
5691;BME280;2870;42.680;23.364;2022-07-29T04:40:11;95310.88;;;20.98;80.73
5691;BME280;2870;42.680;23.364;2022-07-29T04:42:38;95310.31;;;20.87;80.41
5691;BME280;2870;42.680;23.364;2022-07-29T04:45:06;95316.03;;;20.76;80.86
5691;BME280;2870;42.680;23.364;2022-07-29T04:47:34;95315.84;;;20.97;80.35
5691;BME280;2870;42.680;23.364;2022-07-29T04:50:01;95307.44;;;20.99;79.76
5691;BME280;2870;42.680;23.364;2022-07-29T04:52:28;95318.72;;;21.23;78.52
5691;BME280;2870;42.680;23.364;2022-07-29T04:54:55;95313.63;;;21.47;77.28
5691;BME280;2870;42.680;23.364;2022-07-29T04:57:22;95319.78;;;21.55;76.65
5691;BME280;2870;42.680;23.364;2022-07-29T04:59:48;95329.56;;;21.38;77.80
5691;BME280;2870;42.680;23.364;2022-07-29T05:02:15;95328.38;;;21.68;75.93
5691;BME280;2870;42.680;23.364;2022-07-29T05:04:44;95335.06;;;21.73;75.96
5691;BME280;2870;42.680;23.364;2022-07-29T05:07:10;95326.09;;;21.79;75.12
5691;BME280;2870;42.680;23.364;2022-07-29T05:09:37;95322.50;;;21.92;75.34
5691;BME280;2870;42.680;23.364;2022-07-29T05:12:05;95326.88;;;22.07;74.70
5691;BME280;2870;42.680;23.364;2022-07-29T05:14:32;95327.63;;;22.35;73.10
5691;BME280;2870;42.680;23.364;2022-07-29T05:16:59;95328.03;;;22.43;72.23
5691;BME280;2870;42.680;23.364;2022-07-29T05:19:25;95335.97;;;22.58;71.85
5691;BME280;2870;42.680;23.364;2022-07-29T05:21:54;95340.50;;;22.63;72.03
5691;BME280;2870;42.680;23.364;2022-07-29T05:24:21;95336.91;;;22.77;73.40
5691;BME280;2870;42.680;23.364;2022-07-29T05:26:48;95337.63;;;22.77;71.60
5691;BME280;2870;42.680;23.364;2022-07-29T05:29:15;95338.81;;;22.72;71.25
5691;BME280;2870;42.680;23.364;2022-07-29T05:31:42;95337.00;;;22.92;71.00
5691;BME280;2870;42.680;23.364;2022-07-29T05:34:08;95329.47;;;22.99;69.71
5691;BME280;2870;42.680;23.364;2022-07-29T05:36:35;95333.06;;;22.86;70.06
5691;BME280;2870;42.680;23.364;2022-07-29T05:39:03;95333.06;;;22.86;70.73
5691;BME280;2870;42.680;23.364;2022-07-29T05:41:31;95327.41;;;22.58;69.22
5691;BME280;2870;42.680;23.364;2022-07-29T05:43:58;95335.00;;;22.81;68.08
5691;BME280;2870;42.680;23.364;2022-07-29T05:46:25;95335.25;;;23.15;67.63
5691;BME280;2870;42.680;23.364;2022-07-29T05:48:52;95335.81;;;23.27;67.45
5691;BME280;2870;42.680;23.364;2022-07-29T05:51:19;95341.50;;;23.11;67.46
5691;BME280;2870;42.680;23.364;2022-07-29T05:53:46;95339.16;;;23.08;67.50
5691;BME280;2870;42.680;23.364;2022-07-29T05:56:14;95344.34;;;23.41;66.85
5691;BME280;2870;42.680;23.364;2022-07-29T05:58:41;95346.41;;;23.54;67.97
5691;BME280;2870;42.680;23.364;2022-07-29T06:01:08;95334.34;;;23.26;66.87
5691;BME280;2870;42.680;23.364;2022-07-29T06:03:35;95343.84;;;23.31;67.46
5691;BME280;2870;42.680;23.364;2022-07-29T06:06:03;95343.38;;;23.20;68.05
5691;BME280;2870;42.680;23.364;2022-07-29T06:08:31;95346.72;;;23.31;68.16
5691;BME280;2870;42.680;23.364;2022-07-29T06:10:59;95345.13;;;23.57;67.27
5691;BME280;2870;42.680;23.364;2022-07-29T06:13:27;95346.47;;;23.70;67.69
5691;BME280;2870;42.680;23.364;2022-07-29T06:15:54;95346.06;;;23.62;67.48
5691;BME280;2870;42.680;23.364;2022-07-29T06:18:21;95343.44;;;23.52;68.01
5691;BME280;2870;42.680;23.364;2022-07-29T06:20:49;95338.53;;;23.68;67.00
5691;BME280;2870;42.680;23.364;2022-07-29T06:23:16;95344.81;;;23.80;67.04
5691;BME280;2870;42.680;23.364;2022-07-29T06:25:42;95346.28;;;23.82;66.90
5691;BME280;2870;42.680;23.364;2022-07-29T06:28:09;95351.47;;;23.85;66.33
5691;BME280;2870;42.680;23.364;2022-07-29T06:30:37;95345.94;;;23.89;65.71
5691;BME280;2870;42.680;23.364;2022-07-29T06:33:04;95353.69;;;24.18;66.02
5691;BME280;2870;42.680;23.364;2022-07-29T06:35:33;95347.41;;;24.38;65.39
5691;BME280;2870;42.680;23.364;2022-07-29T06:38:00;95343.34;;;24.11;65.61
5691;BME280;2870;42.680;23.364;2022-07-29T06:40:27;95345.38;;;24.24;64.86
5691;BME280;2870;42.680;23.364;2022-07-29T06:43:11;95325.66;;;24.32;65.03
5691;BME280;2870;42.680;23.364;2022-07-29T06:45:39;95340.00;;;24.48;63.84
5691;BME280;2870;42.680;23.364;2022-07-29T06:48:08;95332.91;;;24.67;62.90
5691;BME280;2870;42.680;23.364;2022-07-29T06:50:35;95337.44;;;24.72;63.96
5691;BME280;2870;42.680;23.364;2022-07-29T06:53:02;95342.34;;;25.03;60.60
5691;BME280;2870;42.680;23.364;2022-07-29T06:55:29;95342.81;;;25.14;61.39
5691;BME280;2870;42.680;23.364;2022-07-29T06:57:55;95348.63;;;25.16;60.28
5691;BME280;2870;42.680;23.364;2022-07-29T07:00:22;95349.09;;;25.10;60.57
5691;BME280;2870;42.680;23.364;2022-07-29T07:02:51;95341.06;;;25.24;59.79
5691;BME280;2870;42.680;23.364;2022-07-29T07:05:17;95337.97;;;25.54;59.36
5691;BME280;2870;42.680;23.364;2022-07-29T07:07:44;95342.22;;;25.35;59.99
5691;BME280;2870;42.680;23.364;2022-07-29T07:10:11;95328.41;;;25.67;58.49
5691;BME280;2870;42.680;23.364;2022-07-29T07:12:38;95327.59;;;25.82;56.64
5691;BME280;2870;42.680;23.364;2022-07-29T07:15:05;95330.31;;;26.16;57.32
5691;BME280;2870;42.680;23.364;2022-07-29T07:17:32;95331.75;;;25.97;56.12
5691;BME280;2870;42.680;23.364;2022-07-29T07:20:00;95331.63;;;26.33;55.26
5691;BME280;2870;42.680;23.364;2022-07-29T07:22:27;95330.66;;;26.66;54.34
5691;BME280;2870;42.680;23.364;2022-07-29T07:24:54;95335.38;;;26.37;54.90
5691;BME280;2870;42.680;23.364;2022-07-29T07:27:21;95334.88;;;26.43;54.07
5691;BME280;2870;42.680;23.364;2022-07-29T07:29:48;95326.03;;;26.57;53.71
5691;BME280;2870;42.680;23.364;2022-07-29T07:32:15;95322.34;;;26.74;54.00
5691;BME280;2870;42.680;23.364;2022-07-29T07:34:42;95324.38;;;26.72;52.86
5691;BME280;2870;42.680;23.364;2022-07-29T07:37:11;95313.31;;;26.84;52.42
5691;BME280;2870;42.680;23.364;2022-07-29T07:39:39;95321.00;;;27.41;52.07
5691;BME280;2870;42.680;23.364;2022-07-29T07:42:06;95322.66;;;27.70;51.73
5691;BME280;2870;42.680;23.364;2022-07-29T07:44:33;95321.16;;;27.69;49.60
5691;BME280;2870;42.680;23.364;2022-07-29T07:47:00;95318.19;;;27.67;49.43
5691;BME280;2870;42.680;23.364;2022-07-29T07:49:27;95320.19;;;27.84;49.83
5691;BME280;2870;42.680;23.364;2022-07-29T07:51:53;95328.16;;;28.10;48.87
5691;BME280;2870;42.680;23.364;2022-07-29T07:54:21;95322.22;;;28.04;49.08
5691;BME280;2870;42.680;23.364;2022-07-29T07:56:49;95316.09;;;28.41;50.08
5691;BME280;2870;42.680;23.364;2022-07-29T07:59:16;95327.75;;;28.45;47.59
5691;BME280;2870;42.680;23.364;2022-07-29T08:01:43;95326.91;;;28.67;46.13
5691;BME280;2870;42.680;23.364;2022-07-29T08:04:09;95326.69;;;28.59;46.69
5691;BME280;2870;42.680;23.364;2022-07-29T08:06:36;95325.94;;;29.40;46.88
5691;BME280;2870;42.680;23.364;2022-07-29T08:09:04;95328.22;;;29.74;43.84
5691;BME280;2870;42.680;23.364;2022-07-29T08:11:32;95324.72;;;30.12;44.65
5691;BME280;2870;42.680;23.364;2022-07-29T08:13:59;95330.16;;;29.95;45.04
5691;BME280;2870;42.680;23.364;2022-07-29T08:16:27;95317.09;;;29.94;42.31
5691;BME280;2870;42.680;23.364;2022-07-29T08:18:54;95328.44;;;30.16;42.41
5691;BME280;2870;42.680;23.364;2022-07-29T08:21:23;95322.66;;;30.86;41.70
5691;BME280;2870;42.680;23.364;2022-07-29T08:23:50;95313.59;;;31.06;40.54
5691;BME280;2870;42.680;23.364;2022-07-29T08:26:18;95310.81;;;30.04;42.35
5691;BME280;2870;42.680;23.364;2022-07-29T08:28:49;95310.16;;;31.18;43.34
5691;BME280;2870;42.680;23.364;2022-07-29T08:31:16;95310.00;;;31.99;39.91
5691;BME280;2870;42.680;23.364;2022-07-29T08:33:43;95311.81;;;31.76;39.17
5691;BME280;2870;42.680;23.364;2022-07-29T08:36:10;95317.44;;;31.61;38.60
5691;BME280;2870;42.680;23.364;2022-07-29T08:38:38;95313.84;;;32.11;38.51
5691;BME280;2870;42.680;23.364;2022-07-29T08:41:05;95314.50;;;32.64;38.77
5691;BME280;2870;42.680;23.364;2022-07-29T08:43:32;95300.59;;;33.23;37.33
5691;BME280;2870;42.680;23.364;2022-07-29T08:46:03;95308.31;;;32.94;35.04
5691;BME280;2870;42.680;23.364;2022-07-29T08:48:30;95312.41;;;32.71;34.99
5691;BME280;2870;42.680;23.364;2022-07-29T08:50:58;95307.31;;;32.69;35.93
5691;BME280;2870;42.680;23.364;2022-07-29T08:53:26;95298.81;;;31.30;38.18
5691;BME280;2870;42.680;23.364;2022-07-29T08:55:55;95301.84;;;31.83;37.85
5691;BME280;2870;42.680;23.364;2022-07-29T08:58:22;95295.69;;;32.71;38.05
5691;BME280;2870;42.680;23.364;2022-07-29T09:00:51;95303.59;;;33.32;35.11
5691;BME280;2870;42.680;23.364;2022-07-29T09:03:25;95301.19;;;33.95;33.96
5691;BME280;2870;42.680;23.364;2022-07-29T09:05:52;95302.78;;;34.22;33.10
5691;BME280;2870;42.680;23.364;2022-07-29T09:08:20;95303.47;;;34.13;33.21
5691;BME280;2870;42.680;23.364;2022-07-29T09:10:47;95298.59;;;34.56;31.86
5691;BME280;2870;42.680;23.364;2022-07-29T09:13:14;95290.91;;;33.84;32.59
5691;BME280;2870;42.680;23.364;2022-07-29T09:15:41;95293.84;;;33.88;32.52
5691;BME280;2870;42.680;23.364;2022-07-29T09:18:08;95293.44;;;32.64;34.07
5691;BME280;2870;42.680;23.364;2022-07-29T09:20:37;95286.28;;;32.12;34.70
5691;BME280;2870;42.680;23.364;2022-07-29T09:23:22;95283.88;;;31.48;36.38
5691;BME280;2870;42.680;23.364;2022-07-29T09:25:49;95279.97;;;30.89;36.86
5691;BME280;2870;42.680;23.364;2022-07-29T09:28:17;95287.25;;;30.18;37.63
5691;BME280;2870;42.680;23.364;2022-07-29T09:30:50;95281.28;;;30.09;37.84
5691;BME280;2870;42.680;23.364;2022-07-29T09:33:18;95289.25;;;31.24;38.07
5691;BME280;2870;42.680;23.364;2022-07-29T09:35:57;95281.63;;;31.89;36.14
5691;BME280;2870;42.680;23.364;2022-07-29T09:38:24;95289.75;;;32.03;35.97
5691;BME280;2870;42.680;23.364;2022-07-29T09:40:56;95277.56;;;32.73;34.43
5691;BME280;2870;42.680;23.364;2022-07-29T09:43:23;95286.78;;;33.20;34.20
5691;BME280;2870;42.680;23.364;2022-07-29T09:45:50;95282.69;;;32.79;35.04
5691;BME280;2870;42.680;23.364;2022-07-29T09:48:18;95272.75;;;32.96;33.76
5691;BME280;2870;42.680;23.364;2022-07-29T09:50:46;95267.94;;;33.25;33.08
5691;BME280;2870;42.680;23.364;2022-07-29T09:53:30;95277.66;;;33.62;35.64
5691;BME280;2870;42.680;23.364;2022-07-29T09:55:58;95265.53;;;33.92;32.52
5691;BME280;2870;42.680;23.364;2022-07-29T09:58:24;95263.53;;;34.30;32.35
5691;BME280;2870;42.680;23.364;2022-07-29T10:00:52;95264.88;;;34.06;32.68
5691;BME280;2870;42.680;23.364;2022-07-29T10:03:20;95265.16;;;34.73;31.48
5691;BME280;2870;42.680;23.364;2022-07-29T10:06:04;95264.16;;;34.10;30.87
5691;BME280;2870;42.680;23.364;2022-07-29T10:08:31;95254.22;;;34.70;30.73
5691;BME280;2870;42.680;23.364;2022-07-29T10:11:09;95247.56;;;34.39;32.78
5691;BME280;2870;42.680;23.364;2022-07-29T10:13:36;95241.75;;;34.49;31.48
5691;BME280;2870;42.680;23.364;2022-07-29T10:16:03;95247.28;;;33.90;32.01
5691;BME280;2870;42.680;23.364;2022-07-29T10:18:30;95241.06;;;34.50;31.31
5691;BME280;2870;42.680;23.364;2022-07-29T10:20:59;95243.28;;;34.68;31.11
5691;BME280;2870;42.680;23.364;2022-07-29T10:23:27;95231.00;;;35.29;29.44
5691;BME280;2870;42.680;23.364;2022-07-29T10:25:55;95229.47;;;35.79;28.80
5691;BME280;2870;42.680;23.364;2022-07-29T10:28:22;95225.66;;;36.44;28.16
5691;BME280;2870;42.680;23.364;2022-07-29T10:30:51;95228.25;;;37.01;27.46
5691;BME280;2870;42.680;23.364;2022-07-29T10:33:28;95223.63;;;35.95;27.85
5691;BME280;2870;42.680;23.364;2022-07-29T10:36:10;95212.75;;;35.51;29.98
5691;BME280;2870;42.680;23.364;2022-07-29T10:38:51;95206.13;;;35.83;27.88
5691;BME280;2870;42.680;23.364;2022-07-29T10:41:35;95220.06;;;35.48;28.21
5691;BME280;2870;42.680;23.364;2022-07-29T10:44:05;95209.75;;;35.94;27.74
5691;BME280;2870;42.680;23.364;2022-07-29T10:46:35;95201.81;;;35.37;28.41
5691;BME280;2870;42.680;23.364;2022-07-29T10:49:10;95209.81;;;34.86;29.21
5691;BME280;2870;42.680;23.364;2022-07-29T10:52:02;95212.75;;;34.98;29.36
5691;BME280;2870;42.680;23.364;2022-07-29T10:54:44;95196.72;;;35.03;29.78
5691;BME280;2870;42.680;23.364;2022-07-29T10:57:22;95200.34;;;34.91;29.17
5691;BME280;2870;42.680;23.364;2022-07-29T11:02:45;95184.84;;;34.11;30.64
5691;BME280;2870;42.680;23.364;2022-07-29T11:05:17;95189.28;;;34.31;30.46
5691;BME280;2870;42.680;23.364;2022-07-29T11:10:53;95189.22;;;34.10;32.71
5691;BME280;2870;42.680;23.364;2022-07-29T11:13:46;95175.88;;;33.60;32.60
5691;BME280;2870;42.680;23.364;2022-07-29T11:16:14;95176.63;;;33.65;32.36
5691;BME280;2870;42.680;23.364;2022-07-29T11:19:18;95174.25;;;33.37;32.52
5691;BME280;2870;42.680;23.364;2022-07-29T11:21:46;95166.88;;;33.21;32.10
5691;BME280;2870;42.680;23.364;2022-07-29T11:24:16;95167.78;;;33.46;32.71
5691;BME280;2870;42.680;23.364;2022-07-29T11:26:44;95169.13;;;33.33;32.60
5691;BME280;2870;42.680;23.364;2022-07-29T11:29:19;95156.47;;;32.90;32.42
5691;BME280;2870;42.680;23.364;2022-07-29T11:31:48;95167.34;;;32.89;32.70
5691;BME280;2870;42.680;23.364;2022-07-29T11:34:22;95168.13;;;32.94;33.31
5691;BME280;2870;42.680;23.364;2022-07-29T11:37:14;95169.66;;;33.07;32.89
5691;BME280;2870;42.680;23.364;2022-07-29T11:39:42;95164.28;;;32.71;33.32
5691;BME280;2870;42.680;23.364;2022-07-29T11:42:48;95156.31;;;32.76;33.56
5691;BME280;2870;42.680;23.364;2022-07-29T11:45:21;95156.56;;;33.02;32.60
5691;BME280;2870;42.680;23.364;2022-07-29T11:47:53;95155.19;;;33.13;32.34
5691;BME280;2870;42.680;23.364;2022-07-29T11:50:34;95151.56;;;33.15;32.65
5691;BME280;2870;42.680;23.364;2022-07-29T11:53:03;95138.69;;;33.42;31.93
5691;BME280;2870;42.680;23.364;2022-07-29T11:55:30;95149.00;;;32.68;32.16
5691;BME280;2870;42.680;23.364;2022-07-29T11:58:02;95146.56;;;33.26;31.51
5691;BME280;2870;42.680;23.364;2022-07-29T12:00:31;95150.31;;;33.42;31.98
5691;BME280;2870;42.680;23.364;2022-07-29T12:03:00;95140.78;;;33.32;31.79
5691;BME280;2870;42.680;23.364;2022-07-29T12:05:38;95142.16;;;33.20;32.83
5691;BME280;2870;42.680;23.364;2022-07-29T12:08:11;95136.84;;;32.88;31.70
5691;BME280;2870;42.680;23.364;2022-07-29T12:10:38;95130.91;;;32.76;32.13
5691;BME280;2870;42.680;23.364;2022-07-29T12:13:07;95133.09;;;32.78;32.51
5691;BME280;2870;42.680;23.364;2022-07-29T12:15:34;95135.78;;;32.51;33.02
5691;BME280;2870;42.680;23.364;2022-07-29T12:18:10;95128.50;;;32.50;32.25
5691;BME280;2870;42.680;23.364;2022-07-29T12:20:37;95134.63;;;32.87;32.23
5691;BME280;2870;42.680;23.364;2022-07-29T12:23:08;95130.19;;;32.74;32.27
5691;BME280;2870;42.680;23.364;2022-07-29T12:25:37;95137.66;;;33.01;32.53
5691;BME280;2870;42.680;23.364;2022-07-29T12:28:07;95131.78;;;32.91;32.29
5691;BME280;2870;42.680;23.364;2022-07-29T12:30:43;95134.81;;;33.09;31.85
5691;BME280;2870;42.680;23.364;2022-07-29T12:33:21;95123.19;;;33.09;32.35
5691;BME280;2870;42.680;23.364;2022-07-29T12:35:50;95109.13;;;32.75;31.84
5691;BME280;2870;42.680;23.364;2022-07-29T12:38:19;95122.97;;;32.81;32.39
5691;BME280;2870;42.680;23.364;2022-07-29T12:40:47;95117.06;;;32.70;32.30
5691;BME280;2870;42.680;23.364;2022-07-29T12:43:17;95125.06;;;32.72;32.17
5691;BME280;2870;42.680;23.364;2022-07-29T12:45:46;95127.19;;;32.67;32.76
5691;BME280;2870;42.680;23.364;2022-07-29T12:48:13;95123.00;;;32.87;32.41
5691;BME280;2870;42.680;23.364;2022-07-29T12:50:55;95113.09;;;33.20;31.19
5691;BME280;2870;42.680;23.364;2022-07-29T12:53:22;95108.78;;;33.30;31.46
5691;BME280;2870;42.680;23.364;2022-07-29T12:55:51;95112.34;;;33.16;31.35
5691;BME280;2870;42.680;23.364;2022-07-29T12:58:31;95104.41;;;33.29;31.40
5691;BME280;2870;42.680;23.364;2022-07-29T13:01:07;95105.00;;;33.03;31.77
5691;BME280;2870;42.680;23.364;2022-07-29T13:03:49;95108.59;;;33.01;32.45
5691;BME280;2870;42.680;23.364;2022-07-29T13:06:30;95091.84;;;32.93;31.69
5691;BME280;2870;42.680;23.364;2022-07-29T13:08:59;95086.25;;;33.28;31.27
5691;BME280;2870;42.680;23.364;2022-07-29T13:11:28;95094.84;;;33.04;32.17
5691;BME280;2870;42.680;23.364;2022-07-29T13:13:56;95097.53;;;32.79;32.19
5691;BME280;2870;42.680;23.364;2022-07-29T13:16:23;95087.88;;;32.52;32.89
5691;BME280;2870;42.680;23.364;2022-07-29T13:19:06;95085.81;;;32.67;32.25
5691;BME280;2870;42.680;23.364;2022-07-29T13:21:34;95082.75;;;32.47;32.66
5691;BME280;2870;42.680;23.364;2022-07-29T13:24:01;95085.16;;;32.77;32.01
5691;BME280;2870;42.680;23.364;2022-07-29T13:26:27;95075.81;;;32.86;32.15
5691;BME280;2870;42.680;23.364;2022-07-29T13:28:56;95082.56;;;33.17;32.17